sensor_id;sensor_type;location;lat;lon;timestamp;pressure;altitude;pressure_sealevel;temperature;humidity
57801;BME280;43627;42.728;23.256;2022-08-04T00:01:39;95136.97;;;16.87;100.00
57801;BME280;43627;42.728;23.256;2022-08-04T00:04:31;95143.00;;;16.96;100.00
57801;BME280;43627;42.728;23.256;2022-08-04T00:07:25;95118.19;;;16.74;100.00
57801;BME280;43627;42.728;23.256;2022-08-04T00:10:10;95134.41;;;16.66;100.00
57801;BME280;43627;42.728;23.256;2022-08-04T00:12:41;95143.72;;;16.69;100.00
57801;BME280;43627;42.728;23.256;2022-08-04T00:15:10;95135.22;;;16.78;100.00
57801;BME280;43627;42.728;23.256;2022-08-04T00:17:54;95137.75;;;16.93;100.00
57801;BME280;43627;42.728;23.256;2022-08-04T00:20:28;95139.50;;;17.01;100.00
57801;BME280;43627;42.728;23.256;2022-08-04T00:22:56;95140.25;;;17.07;100.00
57801;BME280;43627;42.728;23.256;2022-08-04T00:25:24;95132.00;;;17.07;100.00
57801;BME280;43627;42.728;23.256;2022-08-04T00:27:51;95143.00;;;17.13;100.00
57801;BME280;43627;42.728;23.256;2022-08-04T00:30:18;95144.53;;;17.25;100.00
57801;BME280;43627;42.728;23.256;2022-08-04T00:32:44;95142.78;;;17.28;100.00
57801;BME280;43627;42.728;23.256;2022-08-04T00:35:15;95151.00;;;17.33;100.00
57801;BME280;43627;42.728;23.256;2022-08-04T00:37:46;95136.50;;;17.16;100.00
57801;BME280;43627;42.728;23.256;2022-08-04T00:42:50;95148.78;;;17.21;100.00
57801;BME280;43627;42.728;23.256;2022-08-04T00:45:49;95152.03;;;17.19;100.00
57801;BME280;43627;42.728;23.256;2022-08-04T00:57:27;95143.25;;;16.93;100.00
57801;BME280;43627;42.728;23.256;2022-08-04T01:00:11;95151.50;;;16.93;100.00
57801;BME280;43627;42.728;23.256;2022-08-04T01:02:58;95137.75;;;16.87;100.00
57801;BME280;43627;42.728;23.256;2022-08-04T01:16:03;95146.22;;;16.72;100.00
57801;BME280;43627;42.728;23.256;2022-08-04T01:27:03;95165.44;;;16.61;100.00
57801;BME280;43627;42.728;23.256;2022-08-04T01:29:45;95159.66;;;16.53;100.00
57801;BME280;43627;42.728;23.256;2022-08-04T01:32:25;95163.41;;;16.50;100.00
57801;BME280;43627;42.728;23.256;2022-08-04T01:35:03;95166.38;;;16.47;100.00
57801;BME280;43627;42.728;23.256;2022-08-04T01:37:58;95164.88;;;16.46;100.00
57801;BME280;43627;42.728;23.256;2022-08-04T01:40:44;95163.31;;;16.22;100.00
57801;BME280;43627;42.728;23.256;2022-08-04T01:43:12;95170.59;;;16.31;100.00
57801;BME280;43627;42.728;23.256;2022-08-04T01:45:40;95151.59;;;16.33;100.00
57801;BME280;43627;42.728;23.256;2022-08-04T01:48:07;95159.81;;;16.27;100.00
57801;BME280;43627;42.728;23.256;2022-08-04T01:50:35;95162.06;;;16.29;100.00
57801;BME280;43627;42.728;23.256;2022-08-04T01:53:03;95142.34;;;16.31;100.00
57801;BME280;43627;42.728;23.256;2022-08-04T01:55:30;95144.06;;;16.28;100.00
57801;BME280;43627;42.728;23.256;2022-08-04T01:58:18;95156.63;;;16.40;100.00
57801;BME280;43627;42.728;23.256;2022-08-04T02:00:59;95160.88;;;16.41;100.00
57801;BME280;43627;42.728;23.256;2022-08-04T02:03:36;95152.81;;;16.21;100.00
57801;BME280;43627;42.728;23.256;2022-08-04T02:09:03;95144.47;;;16.04;100.00
57801;BME280;43627;42.728;23.256;2022-08-04T02:11:36;95149.44;;;16.00;100.00
57801;BME280;43627;42.728;23.256;2022-08-04T02:17:14;95152.84;;;15.78;100.00
57801;BME280;43627;42.728;23.256;2022-08-04T02:20:17;95151.44;;;15.57;100.00
57801;BME280;43627;42.728;23.256;2022-08-04T02:22:59;95151.97;;;15.61;100.00
57801;BME280;43627;42.728;23.256;2022-08-04T02:25:28;95151.69;;;15.59;100.00
57801;BME280;43627;42.728;23.256;2022-08-04T02:33:30;95139.38;;;15.49;100.00
57801;BME280;43627;42.728;23.256;2022-08-04T02:36:02;95153.94;;;15.55;100.00
57801;BME280;43627;42.728;23.256;2022-08-04T02:41:03;95152.03;;;15.66;100.00
57801;BME280;43627;42.728;23.256;2022-08-04T02:43:31;95150.19;;;15.58;100.00
57801;BME280;43627;42.728;23.256;2022-08-04T02:46:18;95161.19;;;15.58;100.00
57801;BME280;43627;42.728;23.256;2022-08-04T02:48:47;95153.94;;;15.55;100.00
57801;BME280;43627;42.728;23.256;2022-08-04T02:51:16;95155.69;;;15.58;100.00
57801;BME280;43627;42.728;23.256;2022-08-04T02:53:45;95163.69;;;15.56;100.00
57801;BME280;43627;42.728;23.256;2022-08-04T02:56:14;95159.13;;;15.53;100.00
57801;BME280;43627;42.728;23.256;2022-08-04T02:58:45;95151.38;;;15.46;100.00
57801;BME280;43627;42.728;23.256;2022-08-04T03:01:14;95157.16;;;15.53;100.00
57801;BME280;43627;42.728;23.256;2022-08-04T03:03:52;95158.50;;;15.32;100.00
57801;BME280;43627;42.728;23.256;2022-08-04T03:15:26;95160.31;;;14.57;100.00
57801;BME280;43627;42.728;23.256;2022-08-04T03:21:04;95172.75;;;14.32;100.00
57801;BME280;43627;42.728;23.256;2022-08-04T03:29:14;95157.25;;;14.09;100.00
57801;BME280;43627;42.728;23.256;2022-08-04T03:40:34;95149.38;;;14.16;100.00
57801;BME280;43627;42.728;23.256;2022-08-04T03:43:29;95155.47;;;14.26;100.00
57801;BME280;43627;42.728;23.256;2022-08-04T03:49:42;95160.72;;;14.70;100.00
57801;BME280;43627;42.728;23.256;2022-08-04T03:52:43;95154.41;;;14.90;100.00
57801;BME280;43627;42.728;23.256;2022-08-04T03:58:47;95157.72;;;15.26;100.00
57801;BME280;43627;42.728;23.256;2022-08-04T16:22:12;94980.13;;;31.35;29.39
57801;BME280;43627;42.728;23.256;2022-08-04T16:24:56;94979.41;;;30.94;31.41
57801;BME280;43627;42.728;23.256;2022-08-04T16:27:40;94924.63;;;30.25;32.40
57801;BME280;43627;42.728;23.256;2022-08-04T16:30:10;94985.25;;;30.57;31.84
57801;BME280;43627;42.728;23.256;2022-08-04T16:32:44;94986.38;;;30.33;31.43
57801;BME280;43627;42.728;23.256;2022-08-04T16:35:19;94983.09;;;29.98;31.37
57801;BME280;43627;42.728;23.256;2022-08-04T16:37:46;94982.75;;;29.74;33.25
57801;BME280;43627;42.728;23.256;2022-08-04T16:40:34;94983.94;;;29.62;32.65
57801;BME280;43627;42.728;23.256;2022-08-04T16:45:49;94986.78;;;29.81;31.99
57801;BME280;43627;42.728;23.256;2022-08-04T16:48:17;94986.63;;;29.79;31.54
57801;BME280;43627;42.728;23.256;2022-08-04T16:50:46;94983.50;;;29.75;32.71
57801;BME280;43627;42.728;23.256;2022-08-04T16:53:15;94980.66;;;29.55;32.20
57801;BME280;43627;42.728;23.256;2022-08-04T16:56:03;94995.47;;;29.56;31.42
57801;BME280;43627;42.728;23.256;2022-08-04T16:58:34;94985.34;;;29.43;32.25
57801;BME280;43627;42.728;23.256;2022-08-04T17:01:20;94995.38;;;29.37;32.94
57801;BME280;43627;42.728;23.256;2022-08-04T17:04:00;94968.44;;;29.14;33.48
57801;BME280;43627;42.728;23.256;2022-08-04T17:06:38;94997.84;;;29.13;33.05
57801;BME280;43627;42.728;23.256;2022-08-04T17:09:10;95001.53;;;29.16;33.33
57801;BME280;43627;42.728;23.256;2022-08-04T17:11:37;94984.03;;;28.98;33.37
57801;BME280;43627;42.728;23.256;2022-08-04T17:14:04;94985.72;;;28.84;33.54
57801;BME280;43627;42.728;23.256;2022-08-04T17:16:34;94995.88;;;28.79;34.20
57801;BME280;43627;42.728;23.256;2022-08-04T17:19:01;95002.88;;;28.61;34.54
57801;BME280;43627;42.728;23.256;2022-08-04T17:21:30;95004.47;;;28.54;34.74
57801;BME280;43627;42.728;23.256;2022-08-04T17:24:00;95003.25;;;28.13;36.18
57801;BME280;43627;42.728;23.256;2022-08-04T17:26:44;95007.97;;;28.10;35.54
57801;BME280;43627;42.728;23.256;2022-08-04T17:29:21;95013.91;;;28.14;35.75
57801;BME280;43627;42.728;23.256;2022-08-04T17:32:16;95019.75;;;28.09;35.80
57801;BME280;43627;42.728;23.256;2022-08-04T17:34:49;95020.59;;;28.02;35.64
57801;BME280;43627;42.728;23.256;2022-08-04T17:37:17;95021.50;;;27.87;35.88
57801;BME280;43627;42.728;23.256;2022-08-04T17:40:10;95020.91;;;27.71;36.01
57801;BME280;43627;42.728;23.256;2022-08-04T17:42:37;95024.97;;;27.53;36.02
57801;BME280;43627;42.728;23.256;2022-08-04T17:45:12;95024.47;;;27.47;36.41
57801;BME280;43627;42.728;23.256;2022-08-04T17:47:58;95034.94;;;27.21;37.61
57801;BME280;43627;42.728;23.256;2022-08-04T17:50:29;95026.50;;;26.96;37.81
57801;BME280;43627;42.728;23.256;2022-08-04T17:53:04;95039.72;;;26.71;38.43
57801;BME280;43627;42.728;23.256;2022-08-04T17:55:44;95038.13;;;26.53;39.36
57801;BME280;43627;42.728;23.256;2022-08-04T17:58:19;95043.34;;;26.56;39.59
57801;BME280;43627;42.728;23.256;2022-08-04T18:01:00;95034.28;;;26.40;38.87
57801;BME280;43627;42.728;23.256;2022-08-04T18:03:48;95037.25;;;26.42;38.71
57801;BME280;43627;42.728;23.256;2022-08-04T18:06:19;95045.44;;;26.48;38.48
57801;BME280;43627;42.728;23.256;2022-08-04T18:08:53;95032.97;;;26.41;38.61
57801;BME280;43627;42.728;23.256;2022-08-04T18:11:37;95048.81;;;26.39;38.40
57801;BME280;43627;42.728;23.256;2022-08-04T18:14:08;95046.94;;;26.41;38.54
57801;BME280;43627;42.728;23.256;2022-08-04T18:16:45;95023.69;;;26.24;39.46
57801;BME280;43627;42.728;23.256;2022-08-04T18:19:14;95052.75;;;26.28;40.49
57801;BME280;43627;42.728;23.256;2022-08-04T18:21:46;95060.50;;;25.97;41.79
57801;BME280;43627;42.728;23.256;2022-08-04T18:24:31;95031.09;;;25.58;42.06
57801;BME280;43627;42.728;23.256;2022-08-04T18:27:21;95053.63;;;25.52;42.67
57801;BME280;43627;42.728;23.256;2022-08-04T18:29:51;95052.16;;;25.51;42.83
57801;BME280;43627;42.728;23.256;2022-08-04T18:32:37;95058.28;;;25.34;43.08
57801;BME280;43627;42.728;23.256;2022-08-04T18:35:24;95051.59;;;25.22;43.48
57801;BME280;43627;42.728;23.256;2022-08-04T18:38:11;95056.78;;;25.11;44.15
57801;BME280;43627;42.728;23.256;2022-08-04T18:40:48;95051.53;;;24.92;44.65
57801;BME280;43627;42.728;23.256;2022-08-04T18:43:20;95064.91;;;24.86;44.79
57801;BME280;43627;42.728;23.256;2022-08-04T18:45:56;95065.06;;;24.80;45.12
57801;BME280;43627;42.728;23.256;2022-08-04T18:48:25;95062.25;;;24.65;45.71
57801;BME280;43627;42.728;23.256;2022-08-04T18:51:01;95062.25;;;24.57;45.72
57801;BME280;43627;42.728;23.256;2022-08-04T18:53:48;95072.63;;;24.49;46.22
57801;BME280;43627;42.728;23.256;2022-08-04T18:56:26;95066.25;;;24.41;46.84
57801;BME280;43627;42.728;23.256;2022-08-04T18:59:00;95077.22;;;24.39;46.44
57801;BME280;43627;42.728;23.256;2022-08-04T19:01:28;95075.47;;;24.28;46.76
57801;BME280;43627;42.728;23.256;2022-08-04T19:04:15;95073.16;;;24.11;47.68
57801;BME280;43627;42.728;23.256;2022-08-04T19:07:03;95083.59;;;24.18;47.42
57801;BME280;43627;42.728;23.256;2022-08-04T19:09:50;95070.06;;;24.22;47.51
57801;BME280;43627;42.728;23.256;2022-08-04T19:12:19;95079.59;;;24.35;47.52
57801;BME280;43627;42.728;23.256;2022-08-04T19:14:54;95060.94;;;24.22;48.50
57801;BME280;43627;42.728;23.256;2022-08-04T19:17:33;95088.06;;;24.21;48.38
57801;BME280;43627;42.728;23.256;2022-08-04T19:20:20;95088.22;;;24.16;48.84
57801;BME280;43627;42.728;23.256;2022-08-04T19:22:51;95076.88;;;24.14;49.65
57801;BME280;43627;42.728;23.256;2022-08-04T19:25:38;95089.69;;;24.09;49.93
57801;BME280;43627;42.728;23.256;2022-08-04T19:28:26;95082.47;;;23.85;50.74
57801;BME280;43627;42.728;23.256;2022-08-04T19:31:00;95083.31;;;23.73;51.48
57801;BME280;43627;42.728;23.256;2022-08-04T19:33:27;95089.09;;;23.54;52.75
57801;BME280;43627;42.728;23.256;2022-08-04T19:36:13;95091.81;;;23.46;53.37
57801;BME280;43627;42.728;23.256;2022-08-04T19:38:43;95094.28;;;23.08;54.91
57801;BME280;43627;42.728;23.256;2022-08-04T19:41:14;95094.38;;;23.02;54.71
57801;BME280;43627;42.728;23.256;2022-08-04T19:43:43;95096.38;;;22.81;55.34
57801;BME280;43627;42.728;23.256;2022-08-04T19:46:14;95069.41;;;22.55;55.64
57801;BME280;43627;42.728;23.256;2022-08-04T19:48:43;95063.94;;;22.29;56.65
57801;BME280;43627;42.728;23.256;2022-08-04T19:51:30;95063.28;;;22.22;59.38
57801;BME280;43627;42.728;23.256;2022-08-04T19:53:58;95093.84;;;22.22;59.35
57801;BME280;43627;42.728;23.256;2022-08-04T19:56:36;95094.28;;;22.13;59.72
57801;BME280;43627;42.728;23.256;2022-08-04T19:59:17;95079.53;;;22.05;59.65
57801;BME280;43627;42.728;23.256;2022-08-04T20:01:57;95082.03;;;22.09;60.17
57801;BME280;43627;42.728;23.256;2022-08-04T20:04:28;95092.78;;;22.12;59.72
57801;BME280;43627;42.728;23.256;2022-08-04T20:06:56;95089.38;;;22.19;60.72
57801;BME280;43627;42.728;23.256;2022-08-04T20:09:31;95086.16;;;22.15;60.34
57801;BME280;43627;42.728;23.256;2022-08-04T20:12:03;95092.56;;;22.23;60.00
57801;BME280;43627;42.728;23.256;2022-08-04T20:14:30;95083.28;;;22.21;59.25
57801;BME280;43627;42.728;23.256;2022-08-04T20:17:02;95088.94;;;22.29;59.14
57801;BME280;43627;42.728;23.256;2022-08-04T20:19:37;95072.81;;;22.14;58.81
57801;BME280;43627;42.728;23.256;2022-08-04T20:22:05;95088.94;;;22.29;58.78
57801;BME280;43627;42.728;23.256;2022-08-04T20:24:55;95106.00;;;22.33;60.34
57801;BME280;43627;42.728;23.256;2022-08-04T20:27:43;95112.44;;;22.28;60.03
57801;BME280;43627;42.728;23.256;2022-08-04T20:30:30;95030.44;;;21.74;60.36
57801;BME280;43627;42.728;23.256;2022-08-04T20:33:03;95094.91;;;21.93;62.15
57801;BME280;43627;42.728;23.256;2022-08-04T20:35:32;95090.13;;;21.80;61.63
57801;BME280;43627;42.728;23.256;2022-08-04T20:38:19;95101.22;;;21.93;60.97
57801;BME280;43627;42.728;23.256;2022-08-04T20:41:03;95097.91;;;21.82;61.66
57801;BME280;43627;42.728;23.256;2022-08-04T20:43:33;95115.19;;;21.75;61.45
57801;BME280;43627;42.728;23.256;2022-08-04T20:46:03;95093.41;;;21.52;61.90
57801;BME280;43627;42.728;23.256;2022-08-04T20:48:50;95106.72;;;21.54;64.53
57801;BME280;43627;42.728;23.256;2022-08-04T20:51:16;95104.25;;;21.50;63.45
57801;BME280;43627;42.728;23.256;2022-08-04T20:53:57;95107.22;;;21.39;63.40
57801;BME280;43627;42.728;23.256;2022-08-04T20:56:24;95110.72;;;21.26;64.22
57801;BME280;43627;42.728;23.256;2022-08-04T20:59:00;95117.47;;;21.12;65.10
57801;BME280;43627;42.728;23.256;2022-08-04T21:01:33;95110.09;;;20.82;66.51
57801;BME280;43627;42.728;23.256;2022-08-04T21:04:00;95106.75;;;20.71;67.52
57801;BME280;43627;42.728;23.256;2022-08-04T21:06:54;95116.34;;;20.70;67.77
57801;BME280;43627;42.728;23.256;2022-08-04T21:09:23;95116.34;;;20.70;66.58
57801;BME280;43627;42.728;23.256;2022-08-04T21:12:03;95119.47;;;20.61;67.61
57801;BME280;43627;42.728;23.256;2022-08-04T21:14:30;95115.50;;;20.56;66.84
57801;BME280;43627;42.728;23.256;2022-08-04T21:16:57;95110.59;;;20.49;65.67
57801;BME280;43627;42.728;23.256;2022-08-04T21:19:25;95106.59;;;20.44;66.49
57801;BME280;43627;42.728;23.256;2022-08-04T21:21:52;95117.53;;;20.56;65.21
57801;BME280;43627;42.728;23.256;2022-08-04T21:24:21;95108.94;;;20.59;66.05
57801;BME280;43627;42.728;23.256;2022-08-04T21:26:52;95116.66;;;20.66;67.26
57801;BME280;43627;42.728;23.256;2022-08-04T21:29:25;95108.84;;;20.65;65.02
57801;BME280;43627;42.728;23.256;2022-08-04T21:32:11;95112.81;;;20.69;66.59
57801;BME280;43627;42.728;23.256;2022-08-04T21:34:39;95113.63;;;20.64;64.89
57801;BME280;43627;42.728;23.256;2022-08-04T21:37:07;95114.53;;;20.72;64.78
57801;BME280;43627;42.728;23.256;2022-08-04T21:39:37;95111.75;;;20.72;63.73
57801;BME280;43627;42.728;23.256;2022-08-04T21:42:24;95121.50;;;20.79;64.73
57801;BME280;43627;42.728;23.256;2022-08-04T21:44:56;95110.34;;;20.85;64.56
57801;BME280;43627;42.728;23.256;2022-08-04T21:47:23;95107.31;;;20.82;63.72
57801;BME280;43627;42.728;23.256;2022-08-04T21:49:49;95115.25;;;20.92;62.45
57801;BME280;43627;42.728;23.256;2022-08-04T21:52:23;95121.78;;;20.94;62.77
57801;BME280;43627;42.728;23.256;2022-08-04T21:54:49;95112.63;;;20.99;62.79
57801;BME280;43627;42.728;23.256;2022-08-04T21:57:20;95112.59;;;20.86;63.45
57801;BME280;43627;42.728;23.256;2022-08-04T21:59:50;95120.78;;;20.92;63.82
57801;BME280;43627;42.728;23.256;2022-08-04T22:02:17;95125.69;;;20.86;64.94
57801;BME280;43627;42.728;23.256;2022-08-04T22:04:43;95129.22;;;20.86;65.60
57801;BME280;43627;42.728;23.256;2022-08-04T22:07:10;95126.50;;;20.80;66.74
57801;BME280;43627;42.728;23.256;2022-08-04T22:09:42;95123.91;;;20.69;67.42
57801;BME280;43627;42.728;23.256;2022-08-04T22:12:28;95131.00;;;20.65;67.51
57801;BME280;43627;42.728;23.256;2022-08-04T22:14:55;95112.81;;;20.50;68.26
57801;BME280;43627;42.728;23.256;2022-08-04T22:17:25;95113.63;;;20.45;68.08
57801;BME280;43627;42.728;23.256;2022-08-04T22:20:01;95097.50;;;20.25;68.25
57801;BME280;43627;42.728;23.256;2022-08-04T22:22:28;95121.19;;;20.45;68.97
57801;BME280;43627;42.728;23.256;2022-08-04T22:25:00;95112.19;;;20.39;70.15
57801;BME280;43627;42.728;23.256;2022-08-04T22:27:38;95121.53;;;20.36;71.20
57801;BME280;43627;42.728;23.256;2022-08-04T22:30:27;95116.00;;;20.36;70.55
57801;BME280;43627;42.728;23.256;2022-08-04T22:32:58;95122.59;;;20.33;71.22
57801;BME280;43627;42.728;23.256;2022-08-04T22:35:26;95111.13;;;20.23;72.06
57801;BME280;43627;42.728;23.256;2022-08-04T22:38:09;95108.66;;;20.19;71.27
57801;BME280;43627;42.728;23.256;2022-08-04T22:40:58;95118.16;;;20.24;71.11
57801;BME280;43627;42.728;23.256;2022-08-04T22:43:26;95108.94;;;20.16;71.03
57801;BME280;43627;42.728;23.256;2022-08-04T22:45:59;95110.00;;;20.13;71.76
57801;BME280;43627;42.728;23.256;2022-08-04T22:48:28;95103.72;;;19.88;73.16
57801;BME280;43627;42.728;23.256;2022-08-04T22:50:58;95110.31;;;19.85;74.39
57801;BME280;43627;42.728;23.256;2022-08-04T22:53:25;95109.56;;;19.84;73.48
57801;BME280;43627;42.728;23.256;2022-08-04T22:55:52;95105.31;;;19.83;73.51
57801;BME280;43627;42.728;23.256;2022-08-04T22:58:40;95111.41;;;19.76;73.00
57801;BME280;43627;42.728;23.256;2022-08-04T23:01:16;95098.13;;;19.69;73.39
57801;BME280;43627;42.728;23.256;2022-08-04T23:03:43;95110.56;;;19.62;75.84
57801;BME280;43627;42.728;23.256;2022-08-04T23:06:22;95115.34;;;19.62;78.13
57801;BME280;43627;42.728;23.256;2022-08-04T23:08:50;95116.31;;;19.64;77.87
57801;BME280;43627;42.728;23.256;2022-08-04T23:11:18;95100.47;;;19.65;75.25
57801;BME280;43627;42.728;23.256;2022-08-04T23:13:44;95112.31;;;19.60;75.33
57801;BME280;43627;42.728;23.256;2022-08-04T23:16:12;95117.13;;;19.54;75.41
57801;BME280;43627;42.728;23.256;2022-08-04T23:18:40;95120.00;;;19.43;76.59
57801;BME280;43627;42.728;23.256;2022-08-04T23:21:11;95121.84;;;19.34;78.57
57801;BME280;43627;42.728;23.256;2022-08-04T23:23:39;95109.28;;;19.33;80.03
57801;BME280;43627;42.728;23.256;2022-08-04T23:26:21;95115.06;;;19.30;80.46
57801;BME280;43627;42.728;23.256;2022-08-04T23:28:56;95114.13;;;19.22;80.08
57801;BME280;43627;42.728;23.256;2022-08-04T23:31:23;95116.97;;;19.16;79.85
57801;BME280;43627;42.728;23.256;2022-08-04T23:34:07;95114.22;;;19.10;81.02
57801;BME280;43627;42.728;23.256;2022-08-04T23:36:34;95122.59;;;19.05;82.36
57801;BME280;43627;42.728;23.256;2022-08-04T23:39:03;95113.56;;;18.99;83.26
57801;BME280;43627;42.728;23.256;2022-08-04T23:41:31;95119.31;;;19.06;83.72
57801;BME280;43627;42.728;23.256;2022-08-04T23:44:18;95115.53;;;19.04;85.68
57801;BME280;43627;42.728;23.256;2022-08-04T23:47:01;95112.28;;;19.05;85.65
57801;BME280;43627;42.728;23.256;2022-08-04T23:49:30;95108.50;;;19.03;84.63
57801;BME280;43627;42.728;23.256;2022-08-04T23:52:11;95109.31;;;18.98;84.32
57801;BME280;43627;42.728;23.256;2022-08-04T23:54:53;95102.84;;;18.90;84.96
57801;BME280;43627;42.728;23.256;2022-08-04T23:57:20;95112.06;;;18.98;85.20
57801;BME280;43627;42.728;23.256;2022-08-04T23:59:50;95109.34;;;18.92;84.27
